Accueil
METAR-TAF:

METAR-TAF

Aéroports :

Volgograd, Russie

Aéroport de Volgograd

latitude: 48-47N, longitude: 044-22E, altitude: 145 m

Observation

Le bulletin a été fait il y a 36 minutes, à 00:00 UTC
Vent 17 kt de sud/sud-est
Température 4°C
Humidité 100%
Pression 1022 hPa
Visibilité 10 km ou plus
Nuages fragmentés à une hauteur de 600 ft

METAR: URWW 140000Z 16009MPS 9999 BKN006 04/04 Q1022 R06/290060 NOSIG

Heure: 03:36 (00:36 UTC)

Prévision

Le bulletin a été fait il y a 1 heure et 37 minutes, à 22:59 UTC
Prévision valable du 14 à 00 UTC au 14 à 09 UTC
Vent 21 kt de sud/sud-est avec des rafales jusqu'à 31 kt
Visibilité: 3100 m
Nuages fragmentés à une hauteur de 1100 ft
brume
Temporairement
du 14 à 00 UTC au 14 à 06 UTC
Vent 14 kt de sud avec des rafales jusqu'à 23 kt
Visibilité: 0500 m
Ciel couvert à une hauteur de 200 ft
brouillard

TAF: URWW 132259Z 1400/1409 15011G16MPS 3100 BR BKN011 TEMPO 1400/1406 18007G12MPS 0500 FG OVC002

Observations et prévisions météorologiques de plus de 4000 aéroports (messages METAR et TAF).

Les stations disponibles sont représentées par des disques jaunes et rouges sur la carte.

Passer la souris dessus pour voir le nom de la station.

Cliquer dessus pour voir les observations et prévisions météorologiques.

Pour changer de carte: cliquez sur les boutons verts avec une croix noire pour zoomer, sur le bouton vert avec un tiret pour effectuer un zoom arrière, ou sur les flèches vertes pour les cartes adjacentes.


METAR-TAF: